Southern Ontario METAR Reports

CYSN - St.Catharines
Updated: 03/24/2017 11:00am
Overcast
Overcast
 Wind from SSW
Wind: SSW 7 km/h
Temperature: 6°C
Wind Chill: 4°C
Dew Point: 4°C
Humidity: 87%
Barometer: 1016.6 hPa
Clouds: Overcast
Visibility: 24 km
Cloud details: Overcast 1646 m
2017/03/24 15:00 CYSN 241500Z 20004KT 15SM OVC054 06/04 A3002 RMK SC8 SLP172
CYHM - Hamilton
Updated: 03/24/2017 11:00am
Mostly cloudy
Mostly cloudy
 Wind from S
Wind: S 13 km/h
Temperature: 5°C
Wind Chill: 2°C
Dew Point: 3°C
Humidity: 87%
Barometer: 1016.3 hPa
Clouds: Mostly cloudy
Visibility: 24 km
Cloud details: Partly cloudy 1219 m
Mostly cloudy 2408 m
2017/03/24 15:00 CYHM 241500Z 19007KT 15SM SCT040 BKN079 05/03 A3001 RMK SC4AC3 SLP173
 
CYYZ - Toronto
Updated: 03/24/2017 11:00am
Mist, Overcast
Mist, Overcast
 Wind from S
Wind: S 11 km/h
Temperature: 3°C
Wind Chill: 0°C
Dew Point: 2°C
Humidity: 93%
Barometer: 1015.9 hPa
Summary: Mist
Clouds: Overcast
Visibility: 10 km
Cloud details: Few Clouds 305 m
Mostly cloudy 1280 m
Overcast 2286 m
2017/03/24 15:00 CYYZ 241500Z 18006KT 6SM BR FEW010 BKN042 OVC075 03/02 A3000 RMK CF1SC4AC3 PRESFR SLP166
CYKF - Waterloo
Updated: 03/24/2017 11:00am
Overcast
Overcast
 Wind from S
Wind: S 11 km/h
Temperature: 4°C
Wind Chill: 1°C
Dew Point: 3°C
Humidity: 93%
Barometer: 1015.2 hPa
Clouds: Overcast
Visibility: 14 km
Cloud details: Few Clouds 1219 m
Overcast 2286 m
2017/03/24 15:00 CYKF 241500Z AUTO 17006KT 140V200 9SM FEW040 OVC075 04/03 A2998 RMK SLP165
 
CYXU - London
Updated: 03/24/2017 11:00am
Overcast
Overcast
 Wind from SSW
Wind: SSW 17 km/h
Temperature: 10°C
Wind Chill: 8°C
Dew Point: 5°C
Humidity: 71%
Barometer: 1015.9 hPa
Clouds: Overcast
Visibility: 24 km
Cloud details: Few Clouds 1524 m
Partly cloudy 2438 m
Overcast 3658 m
2017/03/24 15:00 CYXU 241500Z 21009KT 15SM FEW050 SCT080 OVC120 10/05 A3000 RMK SC2AC2AS4 OBS TAKEN +08 SLP167
CYQG - Windsor
Updated: 03/24/2017 11:00am
Overcast
Overcast
 Wind from SW
Wind: SW 22 km/h
Temperature: 13°C
Dew Point: 8°C
Humidity: 72%
Barometer: 1015.9 hPa
Clouds: Overcast
Visibility: 19 km
Cloud details: Mostly cloudy 4267 m
Overcast 8534 m
2017/03/24 15:00 CYQG 241500Z 22012KT 12SM BKN140 OVC280 13/08 A3000 RMK AC6CS2 SLP164
 
CYZR - Sarnia
Updated: 03/24/2017 11:00am
Few Clouds
Few Clouds
 Wind from SW
Wind: SW 26 km/h, Gust: 43 km/h
Temperature: 13°C
Dew Point: 5°C
Humidity: 59%
Barometer: 1015.2 hPa
Clouds: Few Clouds
Visibility: 14 km
Cloud details: Few Clouds 7010 m
2017/03/24 15:00 CYZR 241500Z AUTO 23014G23KT 9SM FEW230 13/05 A2998 RMK SLP157
CYVV - Wiarton
Updated: 03/24/2017 11:00am
Overcast
Overcast
 Wind from S
Wind: S 20 km/h
Temperature: 5°C
Wind Chill: 1°C
Dew Point: 5°C
Humidity: 100%
Barometer: 1013.5 hPa
Clouds: Overcast
Visibility: 13 km
Cloud details: Overcast 914 m
2017/03/24 15:00 CYVV 241500Z 19011KT 8SM OVC030 05/05 A2993 RMK SC8 SLP145
 
CYPQ - Peterborough
Updated: 03/24/2017 11:39am
Mist, Overcast
Mist, Overcast
 Wind from S
Wind: S 9 km/h
Temperature: 2°C
Wind Chill: -1°C
Dew Point: 2°C
Humidity: 100%
Barometer: 1015.6 hPa
Summary: Mist
Clouds: Overcast
Visibility: 5 km
Cloud details: Overcast 91 m
2017/03/24 15:39 CYPQ 241539Z AUTO 18005KT 170V240 3SM BR OVC003 02/02 A2999 RMK ICG PAST HR SLP166
CYTR - Trenton
Updated: 03/24/2017 11:00am
Light rain, Showers, Overcast
Light rain, Showers, Overcast
 Wind from S
Wind: S 17 km/h
Temperature: 2°C
Wind Chill: -2°C
Dew Point: 0°C
Humidity: 87%
Barometer: 1017.3 hPa
Summary: Light rain, Showers
Clouds: Overcast
Visibility: 11 km
Cloud details: Mostly cloudy 366 m
Overcast 914 m
2017/03/24 15:00 CYTR 241500Z 19009KT 7SM -SHRA BKN012 OVC030 02/00 A3004 RMK SF5SC3 PCPN VRY LGT SLP176